sensor_id;sensor_type;location;lat;lon;timestamp;pressure;altitude;pressure_sealevel;temperature;humidity
68859;BME280;55864;49.238;8.092;2023-12-20T00:01:41;99503.03;;;5.31;100.00
68859;BME280;55864;49.238;8.092;2023-12-20T00:03:42;99505.69;;;5.06;100.00
68859;BME280;55864;49.238;8.092;2023-12-20T00:05:42;99501.91;;;5.35;100.00
68859;BME280;55864;49.238;8.092;2023-12-20T00:07:43;99506.84;;;5.14;100.00
68859;BME280;55864;49.238;8.092;2023-12-20T00:09:45;99501.47;;;5.28;100.00
68859;BME280;55864;49.238;8.092;2023-12-20T00:11:45;99500.31;;;5.32;100.00
68859;BME280;55864;49.238;8.092;2023-12-20T00:13:46;99490.03;;;5.31;100.00
68859;BME280;55864;49.238;8.092;2023-12-20T00:15:46;99487.66;;;5.28;100.00
68859;BME280;55864;49.238;8.092;2023-12-20T00:17:47;99498.50;;;5.58;100.00
68859;BME280;55864;49.238;8.092;2023-12-20T00:19:47;99493.91;;;5.49;100.00
68859;BME280;55864;49.238;8.092;2023-12-20T00:21:48;99497.25;;;5.51;100.00
68859;BME280;55864;49.238;8.092;2023-12-20T00:23:48;99498.69;;;5.31;100.00
68859;BME280;55864;49.238;8.092;2023-12-20T00:25:50;99493.00;;;5.50;100.00
68859;BME280;55864;49.238;8.092;2023-12-20T00:27:51;99499.19;;;5.36;100.00
68859;BME280;55864;49.238;8.092;2023-12-20T00:29:52;99495.31;;;5.42;100.00
68859;BME280;55864;49.238;8.092;2023-12-20T00:31:52;99495.00;;;5.34;100.00
68859;BME280;55864;49.238;8.092;2023-12-20T00:33:53;99498.31;;;5.48;100.00
68859;BME280;55864;49.238;8.092;2023-12-20T00:35:54;99493.03;;;5.61;100.00
68859;BME280;55864;49.238;8.092;2023-12-20T00:37:54;99496.47;;;5.38;100.00
68859;BME280;55864;49.238;8.092;2023-12-20T00:39:55;99488.50;;;5.52;100.00
68859;BME280;55864;49.238;8.092;2023-12-20T00:41:56;99496.19;;;5.30;100.00
68859;BME280;55864;49.238;8.092;2023-12-20T00:43:57;99493.47;;;5.55;100.00
68859;BME280;55864;49.238;8.092;2023-12-20T00:45:57;99486.03;;;5.38;100.00
68859;BME280;55864;49.238;8.092;2023-12-20T00:47:58;99490.50;;;5.48;100.00
68859;BME280;55864;49.238;8.092;2023-12-20T00:49:58;99493.00;;;5.50;100.00
68859;BME280;55864;49.238;8.092;2023-12-20T00:51:59;99498.63;;;5.44;100.00
68859;BME280;55864;49.238;8.092;2023-12-20T00:54:00;99497.19;;;5.40;100.00
68859;BME280;55864;49.238;8.092;2023-12-20T00:56:00;99493.22;;;5.47;100.00
68859;BME280;55864;49.238;8.092;2023-12-20T00:58:02;99494.94;;;6.06;100.00
68859;BME280;55864;49.238;8.092;2023-12-20T01:00:06;99488.81;;;5.84;100.00
68859;BME280;55864;49.238;8.092;2023-12-20T01:02:07;99492.22;;;5.60;100.00
68859;BME280;55864;49.238;8.092;2023-12-20T01:04:07;99487.72;;;5.62;100.00
68859;BME280;55864;49.238;8.092;2023-12-20T01:06:08;99488.06;;;5.58;100.00
68859;BME280;55864;49.238;8.092;2023-12-20T01:08:08;99488.09;;;5.45;100.00
68859;BME280;55864;49.238;8.092;2023-12-20T01:10:09;99486.38;;;5.33;100.00
68859;BME280;55864;49.238;8.092;2023-12-20T01:12:09;99480.03;;;5.37;100.00
68859;BME280;55864;49.238;8.092;2023-12-20T01:14:11;99479.78;;;5.40;100.00
68859;BME280;55864;49.238;8.092;2023-12-20T01:16:12;99473.53;;;5.43;100.00
68859;BME280;55864;49.238;8.092;2023-12-20T01:18:13;99470.22;;;5.28;100.00
68859;BME280;55864;49.238;8.092;2023-12-20T01:20:13;99461.78;;;5.01;100.00
68859;BME280;55864;49.238;8.092;2023-12-20T01:22:14;99470.75;;;5.33;100.00
68859;BME280;55864;49.238;8.092;2023-12-20T01:24:14;99470.41;;;5.38;100.00
68859;BME280;55864;49.238;8.092;2023-12-20T01:26:15;99463.31;;;5.40;100.00
68859;BME280;55864;49.238;8.092;2023-12-20T01:28:15;99461.25;;;5.45;100.00
68859;BME280;55864;49.238;8.092;2023-12-20T01:30:17;99464.97;;;5.17;100.00
68859;BME280;55864;49.238;8.092;2023-12-20T01:32:18;99466.69;;;5.29;100.00
68859;BME280;55864;49.238;8.092;2023-12-20T01:34:18;99468.63;;;5.15;100.00
68859;BME280;55864;49.238;8.092;2023-12-20T01:36:19;99467.78;;;5.14;100.00
68859;BME280;55864;49.238;8.092;2023-12-20T01:38:19;99463.50;;;5.26;100.00
68859;BME280;55864;49.238;8.092;2023-12-20T01:40:20;99457.81;;;5.32;100.00
68859;BME280;55864;49.238;8.092;2023-12-20T01:42:20;99463.63;;;5.12;100.00
68859;BME280;55864;49.238;8.092;2023-12-20T01:44:21;99455.19;;;5.44;100.00
68859;BME280;55864;49.238;8.092;2023-12-20T01:46:23;99459.97;;;5.50;100.00
68859;BME280;55864;49.238;8.092;2023-12-20T01:48:23;99469.44;;;5.15;100.00
68859;BME280;55864;49.238;8.092;2023-12-20T01:50:25;99461.94;;;5.23;100.00
68859;BME280;55864;49.238;8.092;2023-12-20T01:52:26;99456.41;;;5.28;100.00
68859;BME280;55864;49.238;8.092;2023-12-20T01:54:27;99463.97;;;5.31;100.00
68859;BME280;55864;49.238;8.092;2023-12-20T01:56:28;99464.81;;;5.31;100.00
68859;BME280;55864;49.238;8.092;2023-12-20T01:58:29;99465.13;;;5.27;100.00
68859;BME280;55864;49.238;8.092;2023-12-20T02:00:30;99463.41;;;5.15;100.00
68859;BME280;55864;49.238;8.092;2023-12-20T02:02:33;99458.78;;;5.31;100.00
68859;BME280;55864;49.238;8.092;2023-12-20T02:04:34;99462.72;;;5.36;100.00
68859;BME280;55864;49.238;8.092;2023-12-20T02:06:34;99467.09;;;5.36;100.00
68859;BME280;55864;49.238;8.092;2023-12-20T02:08:35;99472.56;;;5.20;100.00
68859;BME280;55864;49.238;8.092;2023-12-20T02:10:36;99466.53;;;5.20;100.00
68859;BME280;55864;49.238;8.092;2023-12-20T02:12:37;99457.19;;;4.92;100.00
68859;BME280;55864;49.238;8.092;2023-12-20T02:14:37;99466.09;;;5.26;100.00
68859;BME280;55864;49.238;8.092;2023-12-20T02:16:41;99460.91;;;5.13;100.00
68859;BME280;55864;49.238;8.092;2023-12-20T02:18:43;99460.44;;;4.96;100.00
68859;BME280;55864;49.238;8.092;2023-12-20T02:20:44;99465.84;;;5.05;100.00
68859;BME280;55864;49.238;8.092;2023-12-20T02:22:46;99457.03;;;5.19;100.00
68859;BME280;55864;49.238;8.092;2023-12-20T02:24:47;99471.06;;;5.29;100.00
68859;BME280;55864;49.238;8.092;2023-12-20T02:26:47;99466.47;;;5.32;100.00
68859;BME280;55864;49.238;8.092;2023-12-20T02:28:48;99477.91;;;5.42;100.00
68859;BME280;55864;49.238;8.092;2023-12-20T02:30:48;99486.66;;;5.41;100.00
68859;BME280;55864;49.238;8.092;2023-12-20T02:32:49;99475.78;;;5.24;100.00
68859;BME280;55864;49.238;8.092;2023-12-20T02:34:50;99486.81;;;5.27;100.00
68859;BME280;55864;49.238;8.092;2023-12-20T02:36:50;99484.22;;;5.51;100.00
68859;BME280;55864;49.238;8.092;2023-12-20T02:38:52;99473.00;;;5.38;100.00
68859;BME280;55864;49.238;8.092;2023-12-20T02:40:53;99457.13;;;5.30;100.00
68859;BME280;55864;49.238;8.092;2023-12-20T02:42:53;99454.34;;;5.44;100.00
68859;BME280;55864;49.238;8.092;2023-12-20T02:44:54;99451.19;;;5.28;100.00
68859;BME280;55864;49.238;8.092;2023-12-20T02:46:54;99471.44;;;5.12;100.00
68859;BME280;55864;49.238;8.092;2023-12-20T02:48:55;99455.00;;;4.99;100.00
68859;BME280;55864;49.238;8.092;2023-12-20T02:50:55;99461.66;;;5.39;100.00
68859;BME280;55864;49.238;8.092;2023-12-20T02:52:56;99464.22;;;5.51;100.00
68859;BME280;55864;49.238;8.092;2023-12-20T02:54:57;99481.25;;;5.32;100.00
68859;BME280;55864;49.238;8.092;2023-12-20T02:56:58;99475.13;;;5.33;100.00
68859;BME280;55864;49.238;8.092;2023-12-20T02:58:59;99469.25;;;5.42;100.00
68859;BME280;55864;49.238;8.092;2023-12-20T03:00:59;99471.31;;;5.49;100.00
68859;BME280;55864;49.238;8.092;2023-12-20T03:03:00;99474.81;;;5.25;100.00
68859;BME280;55864;49.238;8.092;2023-12-20T03:05:00;99477.16;;;5.04;100.00
68859;BME280;55864;49.238;8.092;2023-12-20T03:07:01;99483.97;;;5.30;100.00
68859;BME280;55864;49.238;8.092;2023-12-20T03:09:01;99473.00;;;5.14;100.00
68859;BME280;55864;49.238;8.092;2023-12-20T03:11:03;99468.81;;;5.48;100.00
68859;BME280;55864;49.238;8.092;2023-12-20T03:13:04;99477.44;;;5.25;100.00
68859;BME280;55864;49.238;8.092;2023-12-20T03:15:05;99474.69;;;5.03;100.00
68859;BME280;55864;49.238;8.092;2023-12-20T03:17:05;99470.69;;;5.22;100.00
68859;BME280;55864;49.238;8.092;2023-12-20T03:19:06;99473.91;;;5.49;100.00
68859;BME280;55864;49.238;8.092;2023-12-20T03:21:06;99470.88;;;5.19;100.00
68859;BME280;55864;49.238;8.092;2023-12-20T03:23:07;99468.09;;;5.10;100.00
68859;BME280;55864;49.238;8.092;2023-12-20T03:25:08;99470.16;;;5.30;100.00
68859;BME280;55864;49.238;8.092;2023-12-20T03:27:09;99474.69;;;5.39;100.00
68859;BME280;55864;49.238;8.092;2023-12-20T03:29:10;99472.38;;;5.47;100.00
68859;BME280;55864;49.238;8.092;2023-12-20T03:31:10;99478.75;;;5.43;100.00
68859;BME280;55864;49.238;8.092;2023-12-20T03:33:11;99475.41;;;5.41;100.00
68859;BME280;55864;49.238;8.092;2023-12-20T03:35:11;99478.41;;;5.47;100.00
68859;BME280;55864;49.238;8.092;2023-12-20T03:37:12;99473.53;;;5.43;100.00
68859;BME280;55864;49.238;8.092;2023-12-20T03:39:13;99474.03;;;5.48;100.00
68859;BME280;55864;49.238;8.092;2023-12-20T03:41:13;99467.19;;;5.47;100.00
68859;BME280;55864;49.238;8.092;2023-12-20T03:43:15;99452.84;;;5.29;100.00
68859;BME280;55864;49.238;8.092;2023-12-20T03:45:16;99454.34;;;5.44;100.00
68859;BME280;55864;49.238;8.092;2023-12-20T03:47:16;99456.47;;;5.39;100.00
68859;BME280;55864;49.238;8.092;2023-12-20T03:49:16;99459.28;;;5.36;100.00
68859;BME280;55864;49.238;8.092;2023-12-20T03:51:17;99446.97;;;5.38;100.00
68859;BME280;55864;49.238;8.092;2023-12-20T03:53:18;99450.97;;;5.31;100.00
68859;BME280;55864;49.238;8.092;2023-12-20T03:55:18;99452.91;;;5.40;100.00
68859;BME280;55864;49.238;8.092;2023-12-20T03:57:19;99457.38;;;5.38;100.00
68859;BME280;55864;49.238;8.092;2023-12-20T03:59:21;99457.75;;;5.33;100.00
68859;BME280;55864;49.238;8.092;2023-12-20T04:01:21;99461.16;;;5.34;100.00
68859;BME280;55864;49.238;8.092;2023-12-20T04:03:22;99473.97;;;5.37;100.00
68859;BME280;55864;49.238;8.092;2023-12-20T04:05:22;99461.25;;;5.32;100.00
68859;BME280;55864;49.238;8.092;2023-12-20T04:07:22;99468.03;;;5.35;100.00
68859;BME280;55864;49.238;8.092;2023-12-20T04:09:23;99473.38;;;5.33;100.00
68859;BME280;55864;49.238;8.092;2023-12-20T04:11:23;99476.16;;;5.30;100.00
68859;BME280;55864;49.238;8.092;2023-12-20T04:13:24;99485.91;;;5.39;100.00
68859;BME280;55864;49.238;8.092;2023-12-20T04:15:26;99482.81;;;5.47;100.00
68859;BME280;55864;49.238;8.092;2023-12-20T04:17:26;99483.78;;;5.33;100.00
68859;BME280;55864;49.238;8.092;2023-12-20T04:19:27;99494.25;;;5.44;100.00
68859;BME280;55864;49.238;8.092;2023-12-20T04:21:27;99490.44;;;5.37;100.00
68859;BME280;55864;49.238;8.092;2023-12-20T04:23:28;99490.81;;;5.44;100.00
68859;BME280;55864;49.238;8.092;2023-12-20T04:25:28;99499.97;;;5.49;100.00
68859;BME280;55864;49.238;8.092;2023-12-20T04:27:31;99510.63;;;5.46;100.00
68859;BME280;55864;49.238;8.092;2023-12-20T04:29:31;99506.84;;;5.50;100.00
68859;BME280;55864;49.238;8.092;2023-12-20T04:31:34;99514.56;;;5.52;100.00
68859;BME280;55864;49.238;8.092;2023-12-20T04:33:34;99520.63;;;5.40;100.00
68859;BME280;55864;49.238;8.092;2023-12-20T04:35:35;99524.97;;;5.52;100.00
68859;BME280;55864;49.238;8.092;2023-12-20T04:37:35;99538.63;;;5.55;100.00
68859;BME280;55864;49.238;8.092;2023-12-20T04:39:36;99540.81;;;5.49;100.00
68859;BME280;55864;49.238;8.092;2023-12-20T04:43:37;99556.44;;;5.49;100.00
68859;BME280;55864;49.238;8.092;2023-12-20T04:45:37;99553.75;;;5.50;100.00
68859;BME280;55864;49.238;8.092;2023-12-20T04:47:41;99563.88;;;5.66;100.00
68859;BME280;55864;49.238;8.092;2023-12-20T04:49:42;99549.81;;;5.68;100.00
68859;BME280;55864;49.238;8.092;2023-12-20T04:51:42;99552.84;;;5.62;100.00
68859;BME280;55864;49.238;8.092;2023-12-20T04:53:43;99554.13;;;5.57;100.00
68859;BME280;55864;49.238;8.092;2023-12-20T04:55:43;99550.31;;;5.50;100.00
68859;BME280;55864;49.238;8.092;2023-12-20T04:57:44;99550.41;;;5.48;100.00
68859;BME280;55864;49.238;8.092;2023-12-20T04:59:44;99546.44;;;5.55;100.00
68859;BME280;55864;49.238;8.092;2023-12-20T05:01:49;99550.59;;;5.45;100.00
68859;BME280;55864;49.238;8.092;2023-12-20T05:03:51;99561.66;;;5.49;100.00
68859;BME280;55864;49.238;8.092;2023-12-20T05:05:52;99568.66;;;5.36;100.00
68859;BME280;55864;49.238;8.092;2023-12-20T05:07:52;99577.28;;;5.49;100.00
68859;BME280;55864;49.238;8.092;2023-12-20T05:09:53;99577.25;;;5.61;100.00
68859;BME280;55864;49.238;8.092;2023-12-20T05:11:56;99581.06;;;5.45;100.00
68859;BME280;55864;49.238;8.092;2023-12-20T05:13:57;99579.16;;;5.59;100.00
68859;BME280;55864;49.238;8.092;2023-12-20T05:16:00;99577.34;;;5.72;100.00
68859;BME280;55864;49.238;8.092;2023-12-20T05:18:01;99577.69;;;5.55;100.00
68859;BME280;55864;49.238;8.092;2023-12-20T05:20:03;99582.78;;;5.69;100.00
68859;BME280;55864;49.238;8.092;2023-12-20T05:22:04;99583.66;;;5.81;100.00
68859;BME280;55864;49.238;8.092;2023-12-20T05:24:05;99585.38;;;5.69;100.00
68859;BME280;55864;49.238;8.092;2023-12-20T05:26:05;99578.97;;;5.73;100.00
68859;BME280;55864;49.238;8.092;2023-12-20T05:28:06;99576.91;;;5.66;100.00
68859;BME280;55864;49.238;8.092;2023-12-20T05:30:07;99572.63;;;5.78;100.00
68859;BME280;55864;49.238;8.092;2023-12-20T05:32:08;99580.75;;;5.86;100.00
68859;BME280;55864;49.238;8.092;2023-12-20T05:34:08;99589.31;;;5.75;100.00
68859;BME280;55864;49.238;8.092;2023-12-20T05:36:10;99585.25;;;5.84;100.00
68859;BME280;55864;49.238;8.092;2023-12-20T05:38:11;99580.59;;;5.63;100.00
68859;BME280;55864;49.238;8.092;2023-12-20T05:40:11;99570.25;;;5.74;100.00
68859;BME280;55864;49.238;8.092;2023-12-20T05:42:12;99575.34;;;5.76;100.00
68859;BME280;55864;49.238;8.092;2023-12-20T05:44:12;99575.50;;;5.49;100.00
68859;BME280;55864;49.238;8.092;2023-12-20T05:46:13;99567.69;;;5.49;100.00
68859;BME280;55864;49.238;8.092;2023-12-20T05:48:13;99572.56;;;5.66;100.00
68859;BME280;55864;49.238;8.092;2023-12-20T05:50:14;99579.53;;;5.66;100.00
68859;BME280;55864;49.238;8.092;2023-12-20T05:52:16;99579.75;;;5.63;100.00
68859;BME280;55864;49.238;8.092;2023-12-20T05:54:16;99595.97;;;5.43;100.00
68859;BME280;55864;49.238;8.092;2023-12-20T05:56:17;99599.50;;;5.42;100.00
68859;BME280;55864;49.238;8.092;2023-12-20T05:58:17;99601.06;;;5.32;100.00
68859;BME280;55864;49.238;8.092;2023-12-20T06:00:18;99605.84;;;5.50;100.00
68859;BME280;55864;49.238;8.092;2023-12-20T06:02:19;99614.81;;;5.46;100.00
68859;BME280;55864;49.238;8.092;2023-12-20T06:04:19;99615.22;;;5.40;100.00
68859;BME280;55864;49.238;8.092;2023-12-20T06:06:20;99613.31;;;5.55;100.00
68859;BME280;55864;49.238;8.092;2023-12-20T06:08:22;99621.81;;;5.33;100.00
68859;BME280;55864;49.238;8.092;2023-12-20T06:10:22;99631.56;;;5.55;100.00
68859;BME280;55864;49.238;8.092;2023-12-20T06:12:23;99627.06;;;5.57;100.00
68859;BME280;55864;49.238;8.092;2023-12-20T06:14:23;99640.84;;;5.34;100.00
68859;BME280;55864;49.238;8.092;2023-12-20T06:16:24;99635.22;;;5.40;100.00
68859;BME280;55864;49.238;8.092;2023-12-20T06:18:24;99638.56;;;5.54;100.00
68859;BME280;55864;49.238;8.092;2023-12-20T06:20:25;99640.31;;;5.54;100.00
68859;BME280;55864;49.238;8.092;2023-12-20T06:22:25;99635.81;;;5.68;99.77
68859;BME280;55864;49.238;8.092;2023-12-20T06:24:27;99651.88;;;5.62;99.19
68859;BME280;55864;49.238;8.092;2023-12-20T06:26:28;99649.31;;;5.37;99.15
68859;BME280;55864;49.238;8.092;2023-12-20T06:28:28;99650.00;;;5.39;98.69
68859;BME280;55864;49.238;8.092;2023-12-20T06:30:29;99650.13;;;5.50;99.00
68859;BME280;55864;49.238;8.092;2023-12-20T06:32:33;99646.56;;;5.51;98.55
68859;BME280;55864;49.238;8.092;2023-12-20T06:34:33;99661.59;;;5.48;99.27
68859;BME280;55864;49.238;8.092;2023-12-20T06:36:34;99660.94;;;5.32;99.39
68859;BME280;55864;49.238;8.092;2023-12-20T06:38:34;99670.75;;;5.53;97.88
68859;BME280;55864;49.238;8.092;2023-12-20T06:40:36;99671.78;;;5.63;97.55
68859;BME280;55864;49.238;8.092;2023-12-20T06:42:37;99682.72;;;5.31;96.63
68859;BME280;55864;49.238;8.092;2023-12-20T06:44:37;99685.44;;;5.29;97.20
68859;BME280;55864;49.238;8.092;2023-12-20T06:46:38;99682.84;;;5.42;96.16
68859;BME280;55864;49.238;8.092;2023-12-20T06:48:38;99689.00;;;5.41;95.43
68859;BME280;55864;49.238;8.092;2023-12-20T06:50:39;99692.53;;;5.27;95.77
68859;BME280;55864;49.238;8.092;2023-12-20T06:52:39;99691.06;;;5.23;97.36
68859;BME280;55864;49.238;8.092;2023-12-20T06:54:40;99696.69;;;5.17;96.50
68859;BME280;55864;49.238;8.092;2023-12-20T06:56:42;99679.00;;;5.35;94.79
68859;BME280;55864;49.238;8.092;2023-12-20T06:58:42;99679.38;;;5.41;93.36
68859;BME280;55864;49.238;8.092;2023-12-20T07:00:43;99682.72;;;5.43;91.58
68859;BME280;55864;49.238;8.092;2023-12-20T07:02:44;99695.03;;;5.41;91.65
68859;BME280;55864;49.238;8.092;2023-12-20T07:04:45;99696.38;;;5.22;90.82
68859;BME280;55864;49.238;8.092;2023-12-20T07:06:46;99692.22;;;5.19;91.79
68859;BME280;55864;49.238;8.092;2023-12-20T07:08:46;99694.84;;;5.44;91.89
68859;BME280;55864;49.238;8.092;2023-12-20T07:10:47;99686.47;;;5.39;92.14
68859;BME280;55864;49.238;8.092;2023-12-20T07:12:48;99696.19;;;5.37;92.21
68859;BME280;55864;49.238;8.092;2023-12-20T07:14:49;99698.47;;;5.29;92.87
68859;BME280;55864;49.238;8.092;2023-12-20T07:16:49;99708.34;;;5.24;93.66
68859;BME280;55864;49.238;8.092;2023-12-20T07:18:50;99700.63;;;5.23;93.31
68859;BME280;55864;49.238;8.092;2023-12-20T07:20:50;99696.47;;;5.08;93.38
68859;BME280;55864;49.238;8.092;2023-12-20T07:22:51;99698.16;;;5.34;92.18
68859;BME280;55864;49.238;8.092;2023-12-20T07:24:51;99696.22;;;4.98;92.52
68859;BME280;55864;49.238;8.092;2023-12-20T07:26:52;99693.44;;;5.14;92.58
68859;BME280;55864;49.238;8.092;2023-12-20T07:30:54;99705.03;;;4.70;95.65
68859;BME280;55864;49.238;8.092;2023-12-20T07:32:55;99711.44;;;4.38;98.98
68859;BME280;55864;49.238;8.092;2023-12-20T07:34:55;99723.59;;;4.52;99.39
68859;BME280;55864;49.238;8.092;2023-12-20T07:36:56;99726.72;;;4.57;99.28
68859;BME280;55864;49.238;8.092;2023-12-20T07:38:56;99714.16;;;4.63;99.30
68859;BME280;55864;49.238;8.092;2023-12-20T07:40:57;99719.59;;;4.06;100.00
68859;BME280;55864;49.238;8.092;2023-12-20T07:42:57;99722.75;;;3.97;100.00
68859;BME280;55864;49.238;8.092;2023-12-20T07:44:59;99724.41;;;4.52;100.00
68859;BME280;55864;49.238;8.092;2023-12-20T07:47:00;99730.00;;;4.46;100.00
68859;BME280;55864;49.238;8.092;2023-12-20T07:49:00;99727.56;;;4.17;100.00
68859;BME280;55864;49.238;8.092;2023-12-20T07:51:01;99739.50;;;4.60;100.00
68859;BME280;55864;49.238;8.092;2023-12-20T07:53:02;99735.88;;;4.62;99.74
68859;BME280;55864;49.238;8.092;2023-12-20T07:55:02;99740.50;;;4.71;100.00
68859;BME280;55864;49.238;8.092;2023-12-20T07:57:03;99738.94;;;4.96;99.49
68859;BME280;55864;49.238;8.092;2023-12-20T07:59:04;99736.28;;;4.83;100.00
68859;BME280;55864;49.238;8.092;2023-12-20T08:01:08;99732.78;;;4.97;98.55
68859;BME280;55864;49.238;8.092;2023-12-20T08:03:13;99736.97;;;4.72;98.89
68859;BME280;55864;49.238;8.092;2023-12-20T08:05:17;99739.25;;;5.04;98.70
68859;BME280;55864;49.238;8.092;2023-12-20T08:07:17;99734.97;;;5.03;96.65
68859;BME280;55864;49.238;8.092;2023-12-20T08:09:18;99731.06;;;5.22;95.91
68859;BME280;55864;49.238;8.092;2023-12-20T08:11:19;99727.69;;;4.95;96.63
68859;BME280;55864;49.238;8.092;2023-12-20T08:13:19;99739.25;;;4.77;98.28
68859;BME280;55864;49.238;8.092;2023-12-20T08:15:20;99733.97;;;5.18;96.89
68859;BME280;55864;49.238;8.092;2023-12-20T08:17:22;99735.38;;;4.97;97.21
68859;BME280;55864;49.238;8.092;2023-12-20T08:19:22;99737.09;;;5.10;96.05
68859;BME280;55864;49.238;8.092;2023-12-20T08:21:23;99741.97;;;4.75;98.46
68859;BME280;55864;49.238;8.092;2023-12-20T08:23:23;99743.41;;;4.94;98.46
68859;BME280;55864;49.238;8.092;2023-12-20T08:25:24;99732.38;;;5.03;96.74
68859;BME280;55864;49.238;8.092;2023-12-20T08:27:24;99737.09;;;5.10;96.72
68859;BME280;55864;49.238;8.092;2023-12-20T08:29:25;99736.41;;;4.94;96.74
68859;BME280;55864;49.238;8.092;2023-12-20T08:31:25;99732.28;;;5.17;96.36
68859;BME280;55864;49.238;8.092;2023-12-20T08:33:28;99745.34;;;5.29;94.15
68859;BME280;55864;49.238;8.092;2023-12-20T08:35:29;99741.59;;;5.33;95.17
68859;BME280;55864;49.238;8.092;2023-12-20T08:37:29;99749.41;;;5.46;94.08
68859;BME280;55864;49.238;8.092;2023-12-20T08:39:30;99746.69;;;5.22;94.10
68859;BME280;55864;49.238;8.092;2023-12-20T08:41:30;99733.34;;;5.27;94.19
68859;BME280;55864;49.238;8.092;2023-12-20T08:43:31;99737.63;;;5.53;92.50
68859;BME280;55864;49.238;8.092;2023-12-20T08:45:31;99725.97;;;5.46;93.07
68859;BME280;55864;49.238;8.092;2023-12-20T08:47:32;99733.91;;;5.57;93.20
68859;BME280;55864;49.238;8.092;2023-12-20T08:49:34;99723.78;;;5.78;90.70
68859;BME280;55864;49.238;8.092;2023-12-20T08:51:34;99729.84;;;5.65;91.68
68859;BME280;55864;49.238;8.092;2023-12-20T08:53:35;99729.44;;;5.84;90.32
68859;BME280;55864;49.238;8.092;2023-12-20T08:55:35;99729.00;;;5.78;89.34
68859;BME280;55864;49.238;8.092;2023-12-20T08:57:36;99747.34;;;5.63;90.71
68859;BME280;55864;49.238;8.092;2023-12-20T08:59:36;99742.97;;;5.64;89.86
68859;BME280;55864;49.238;8.092;2023-12-20T09:01:37;99746.75;;;5.60;89.77
68859;BME280;55864;49.238;8.092;2023-12-20T09:03:41;99751.84;;;5.61;91.84
68859;BME280;55864;49.238;8.092;2023-12-20T09:05:43;99742.66;;;5.56;92.15
68859;BME280;55864;49.238;8.092;2023-12-20T09:07:44;99742.13;;;5.38;91.93
68859;BME280;55864;49.238;8.092;2023-12-20T09:09:44;99743.19;;;5.48;92.45
68859;BME280;55864;49.238;8.092;2023-12-20T09:11:45;99733.34;;;5.39;92.01
68859;BME280;55864;49.238;8.092;2023-12-20T09:13:45;99722.22;;;5.50;91.48
68859;BME280;55864;49.238;8.092;2023-12-20T09:15:46;99740.81;;;5.06;91.58
68859;BME280;55864;49.238;8.092;2023-12-20T09:17:46;99741.59;;;5.46;91.21
68859;BME280;55864;49.238;8.092;2023-12-20T09:21:49;99743.16;;;5.36;92.34
68859;BME280;55864;49.238;8.092;2023-12-20T09:23:49;99739.41;;;5.27;92.77
68859;BME280;55864;49.238;8.092;2023-12-20T09:25:50;99741.53;;;5.60;90.56
68859;BME280;55864;49.238;8.092;2023-12-20T09:27:50;99744.22;;;5.58;90.22
68859;BME280;55864;49.238;8.092;2023-12-20T09:29:51;99743.69;;;5.53;90.43
68859;BME280;55864;49.238;8.092;2023-12-20T09:31:51;99740.47;;;5.37;90.85
68859;BME280;55864;49.238;8.092;2023-12-20T09:33:53;99745.69;;;5.50;90.62
68859;BME280;55864;49.238;8.092;2023-12-20T09:35:55;99744.84;;;5.49;91.84
68859;BME280;55864;49.238;8.092;2023-12-20T09:37:56;99744.94;;;5.48;92.23
68859;BME280;55864;49.238;8.092;2023-12-20T09:39:57;99747.34;;;5.51;91.53
68859;BME280;55864;49.238;8.092;2023-12-20T09:42:00;99755.47;;;5.46;91.84
68859;BME280;55864;49.238;8.092;2023-12-20T09:44:01;99753.59;;;5.48;90.86
68859;BME280;55864;49.238;8.092;2023-12-20T09:46:05;99758.81;;;5.48;90.43
68859;BME280;55864;49.238;8.092;2023-12-20T09:48:07;99762.56;;;5.57;90.96
68859;BME280;55864;49.238;8.092;2023-12-20T09:50:08;99767.03;;;5.42;91.53
68859;BME280;55864;49.238;8.092;2023-12-20T09:52:09;99756.81;;;5.64;91.37
68859;BME280;55864;49.238;8.092;2023-12-20T09:54:13;99767.88;;;5.43;90.95
68859;BME280;55864;49.238;8.092;2023-12-20T09:56:14;99771.31;;;5.81;90.27
68859;BME280;55864;49.238;8.092;2023-12-20T09:58:15;99765.94;;;5.84;89.43
68859;BME280;55864;49.238;8.092;2023-12-20T10:00:16;99769.66;;;5.67;89.46
68859;BME280;55864;49.238;8.092;2023-12-20T10:02:18;99760.38;;;5.76;89.79
68859;BME280;55864;49.238;8.092;2023-12-20T10:04:21;99756.31;;;5.59;91.11
68859;BME280;55864;49.238;8.092;2023-12-20T10:06:22;99743.06;;;5.62;89.28
68859;BME280;55864;49.238;8.092;2023-12-20T10:08:24;99754.63;;;5.58;90.68
68859;BME280;55864;49.238;8.092;2023-12-20T10:10:26;99748.59;;;5.58;89.34
68859;BME280;55864;49.238;8.092;2023-12-20T10:12:26;99744.63;;;5.65;90.02
68859;BME280;55864;49.238;8.092;2023-12-20T10:14:27;99755.56;;;5.70;91.18
68859;BME280;55864;49.238;8.092;2023-12-20T10:16:27;99740.28;;;6.03;92.54
68859;BME280;55864;49.238;8.092;2023-12-20T10:18:29;99742.97;;;5.89;91.37
68859;BME280;55864;49.238;8.092;2023-12-20T10:20:29;99734.56;;;6.34;88.97
68859;BME280;55864;49.238;8.092;2023-12-20T10:22:31;99737.84;;;6.13;91.34
68859;BME280;55864;49.238;8.092;2023-12-20T10:24:32;99735.22;;;6.25;90.07
68859;BME280;55864;49.238;8.092;2023-12-20T10:26:34;99736.69;;;6.17;88.35
68859;BME280;55864;49.238;8.092;2023-12-20T10:28:35;99735.34;;;6.47;86.99
68859;BME280;55864;49.238;8.092;2023-12-20T10:30:35;99743.63;;;6.41;87.03
68859;BME280;55864;49.238;8.092;2023-12-20T10:32:36;99745.78;;;6.47;86.64
68859;BME280;55864;49.238;8.092;2023-12-20T10:34:36;99736.47;;;6.20;87.76
68859;BME280;55864;49.238;8.092;2023-12-20T10:36:37;99751.94;;;6.10;88.48
68859;BME280;55864;49.238;8.092;2023-12-20T10:38:39;99753.41;;;5.89;88.84
68859;BME280;55864;49.238;8.092;2023-12-20T10:40:43;99750.91;;;5.88;90.47
68859;BME280;55864;49.238;8.092;2023-12-20T10:42:47;99737.94;;;6.24;90.04
68859;BME280;55864;49.238;8.092;2023-12-20T10:44:48;99746.06;;;6.19;89.72
68859;BME280;55864;49.238;8.092;2023-12-20T10:46:49;99732.72;;;6.24;89.73
68859;BME280;55864;49.238;8.092;2023-12-20T10:48:51;99731.00;;;5.99;89.93
68859;BME280;55864;49.238;8.092;2023-12-20T10:50:55;99742.00;;;6.15;90.43